<?xml version='1.0' encoding='utf-8'?>
<gpx xmlns="http://www.topografix.com/GPX/1/1" xmlns:gpxx="http://www.garmin.com/xmlschemas/GpxExtensions/v3" xmlns:xsi="http://www.w3.org/2001/XMLSchema-instance" creator="eTrex 30" version="1.1" xsi:schemaLocation="http://www.topografix.com/GPX/1/1 http://www.topografix.com/GPX/1/1/gpx.xsd http://www.garmin.com/xmlschemas/GpxExtensions/v3 http://www8.garmin.com/xmlschemas/GpxExtensionsv3.xsd http://www.garmin.com/xmlschemas/WaypointExtension/v1 http://www8.garmin.com/xmlschemas/WaypointExtensionv1.xsd http://www.garmin.com/xmlschemas/TrackPointExtension/v1 http://www.garmin.com/xmlschemas/TrackPointExtensionv1.xsd"><metadata><link href="http://www.garmin.com"><text>Garmin International</text></link><time>2015-11-26T15:37:19Z</time></metadata><trk><name>26-NOV-15 17:37:16</name><extensions><gpxx:TrackExtension><gpxx:DisplayColor>Cyan</gpxx:DisplayColor></gpxx:TrackExtension></extensions><trkseg><trkpt lat="30.1771773957" lon="35.4274870455"><ele>1569.5</ele><time>2015-11-26T07:09:23Z</time></trkpt><trkpt lat="30.1770587079" lon="35.4276817571"><ele>1572.1</ele><time>2015-11-26T07:11:07Z</time></trkpt><trkpt lat="30.1719418913" lon="35.4278198071"><ele>1563.4</ele><time>2015-11-26T07:13:10Z</time></trkpt><trkpt lat="30.1688994281" lon="35.4257722758"><ele>1558.3</ele><time>2015-11-26T07:14:03Z</time></trkpt><trkpt lat="30.1621612161" lon="35.4235061444"><ele>1536.0</ele><time>2015-11-26T07:15:50Z</time></trkpt><trkpt lat="30.1600428578" lon="35.4225926008"><ele>1541.0</ele><time>2015-11-26T07:16:28Z</time></trkpt><trkpt lat="30.1565465983" lon="35.4206149746"><ele>1517.3</ele><time>2015-11-26T07:17:25Z</time></trkpt><trkpt lat="30.1538123377" lon="35.4200280737"><ele>1505.5</ele><time>2015-11-26T07:18:02Z</time></trkpt><trkpt lat="30.1530530211" lon="35.4200563207"><ele>1504.8</ele><time>2015-11-26T07:18:11Z</time></trkpt><trkpt lat="30.1512473077" lon="35.4187765718"><ele>1493.6</ele><time>2015-11-26T07:18:35Z</time></trkpt><trkpt lat="30.1496482920" lon="35.4192521609"><ele>1489.2</ele><time>2015-11-26T07:19:01Z</time></trkpt><trkpt lat="30.1483799424" lon="35.4193632212"><ele>1479.8</ele><time>2015-11-26T07:19:16Z</time></trkpt><trkpt lat="30.1474753674" lon="35.4184724763"><ele>1476.5</ele><time>2015-11-26T07:19:30Z</time></trkpt><trkpt lat="30.1465680264" lon="35.4179621860"><ele>1482.5</ele><time>2015-11-26T07:19:42Z</time></trkpt><trkpt lat="30.1455983240" lon="35.4171563499"><ele>1476.8</ele><time>2015-11-26T07:19:58Z</time></trkpt><trkpt lat="30.1447154582" lon="35.4171554279"><ele>1470.3</ele><time>2015-11-26T07:20:12Z</time></trkpt><trkpt lat="30.1436611824" lon="35.4177286662"><ele>1466.7</ele><time>2015-11-26T07:20:25Z</time></trkpt><trkpt lat="30.1426509116" lon="35.4174974095"><ele>1461.5</ele><time>2015-11-26T07:20:37Z</time></trkpt><trkpt lat="30.1418969594" lon="35.4169323854"><ele>1472.1</ele><time>2015-11-26T07:21:00Z</time></trkpt><trkpt lat="30.1410456933" lon="35.4166626558"><ele>1471.6</ele><time>2015-11-26T07:21:29Z</time></trkpt><trkpt lat="30.1405291166" lon="35.4162629228"><ele>1469.8</ele><time>2015-11-26T07:21:43Z</time></trkpt><trkpt lat="30.1397091150" lon="35.4159310833"><ele>1465.5</ele><time>2015-11-26T07:21:56Z</time></trkpt><trkpt lat="30.1390777063" lon="35.4135583341"><ele>1461.6</ele><time>2015-11-26T07:22:26Z</time></trkpt><trkpt lat="30.1388441026" lon="35.4133921210"><ele>1456.7</ele><time>2015-11-26T07:22:32Z</time></trkpt><trkpt lat="30.1381304674" lon="35.4135379661"><ele>1454.6</ele><time>2015-11-26T07:22:43Z</time></trkpt><trkpt lat="30.1381128654" lon="35.4128487222"><ele>1450.5</ele><time>2015-11-26T07:22:51Z</time></trkpt><trkpt lat="30.1377770025" lon="35.4114074539"><ele>1430.7</ele><time>2015-11-26T07:23:05Z</time></trkpt><trkpt lat="30.1365118381" lon="35.4102347419"><ele>1413.1</ele><time>2015-11-26T07:23:18Z</time></trkpt><trkpt lat="30.1353490166" lon="35.4095864855"><ele>1390.8</ele><time>2015-11-26T07:23:32Z</time></trkpt><trkpt lat="30.1339216623" lon="35.4096839670"><ele>1368.7</ele><time>2015-11-26T07:23:53Z</time></trkpt><trkpt lat="30.1325315237" lon="35.4100729711"><ele>1360.1</ele><time>2015-11-26T07:24:12Z</time></trkpt><trkpt lat="30.1337883063" lon="35.4096459132"><ele>1367.1</ele><time>2015-11-26T07:25:05Z</time></trkpt><trkpt lat="30.1341422740" lon="35.4086571001"><ele>1363.5</ele><time>2015-11-26T07:25:30Z</time></trkpt><trkpt lat="30.1340707764" lon="35.4084871151"><ele>1362.0</ele><time>2015-11-26T07:25:34Z</time></trkpt><trkpt lat="30.1338900626" lon="35.4083455447"><ele>1360.1</ele><time>2015-11-26T07:25:39Z</time></trkpt><trkpt lat="30.1332150679" lon="35.4085294437"><ele>1352.4</ele><time>2015-11-26T07:25:48Z</time></trkpt><trkpt lat="30.1310278103" lon="35.4083043057"><ele>1327.2</ele><time>2015-11-26T07:26:08Z</time></trkpt><trkpt lat="30.1292881463" lon="35.4063427728"><ele>1317.8</ele><time>2015-11-26T07:26:35Z</time></trkpt><trkpt lat="30.1274897251" lon="35.4030358605"><ele>1290.5</ele><time>2015-11-26T07:28:11Z</time></trkpt><trkpt lat="30.1265537180" lon="35.4026123229"><ele>1286.6</ele><time>2015-11-26T07:28:20Z</time></trkpt><trkpt lat="30.1257172041" lon="35.4026153404"><ele>1278.1</ele><time>2015-11-26T07:28:30Z</time></trkpt><trkpt lat="30.1251795050" lon="35.4021831695"><ele>1268.9</ele><time>2015-11-26T07:28:37Z</time></trkpt><trkpt lat="30.1246884093" lon="35.4014659300"><ele>1265.8</ele><time>2015-11-26T07:28:44Z</time></trkpt><trkpt lat="30.1220154203" lon="35.4003358819"><ele>1239.7</ele><time>2015-11-26T07:29:05Z</time></trkpt><trkpt lat="30.1213516574" lon="35.4001938924"><ele>1238.6</ele><time>2015-11-26T07:29:10Z</time></trkpt><trkpt lat="30.1202890836" lon="35.4003014322"><ele>1232.0</ele><time>2015-11-26T07:29:21Z</time></trkpt><trkpt lat="30.1190177165" lon="35.3998215683"><ele>1230.9</ele><time>2015-11-26T07:29:34Z</time></trkpt><trkpt lat="30.1141243614" lon="35.3963516280"><ele>1208.1</ele><time>2015-11-26T07:30:35Z</time></trkpt><trkpt lat="30.1125157066" lon="35.3959244024"><ele>1195.7</ele><time>2015-11-26T07:31:02Z</time></trkpt><trkpt lat="30.1106597856" lon="35.3949283808"><ele>1189.1</ele><time>2015-11-26T07:31:25Z</time></trkpt><trkpt lat="30.1103080809" lon="35.3943822999"><ele>1187.1</ele><time>2015-11-26T07:31:33Z</time></trkpt><trkpt lat="30.1099207532" lon="35.3916112427"><ele>1180.1</ele><time>2015-11-26T07:32:08Z</time></trkpt><trkpt lat="30.1082681771" lon="35.3898669686"><ele>1178.0</ele><time>2015-11-26T07:32:51Z</time></trkpt><trkpt lat="30.1077981200" lon="35.3890618868"><ele>1177.3</ele><time>2015-11-26T07:34:03Z</time></trkpt><trkpt lat="30.1058807597" lon="35.3840857185"><ele>1159.9</ele><time>2015-11-26T07:36:03Z</time></trkpt><trkpt lat="30.1054517739" lon="35.3833303414"><ele>1154.0</ele><time>2015-11-26T07:36:14Z</time></trkpt><trkpt lat="30.1035624929" lon="35.3819934279"><ele>1147.9</ele><time>2015-11-26T07:36:45Z</time></trkpt><trkpt lat="30.1021313667" lon="35.3780772351"><ele>1134.7</ele><time>2015-11-26T07:37:40Z</time></trkpt><trkpt lat="30.1008054335" lon="35.3769625258"><ele>1134.1</ele><time>2015-11-26T07:38:22Z</time></trkpt><trkpt lat="30.0999883655" lon="35.3739934880"><ele>1121.3</ele><time>2015-11-26T07:38:54Z</time></trkpt><trkpt lat="30.0990946032" lon="35.3733265400"><ele>1119.3</ele><time>2015-11-26T07:39:12Z</time></trkpt><trkpt lat="30.0989741553" lon="35.3722757008"><ele>1119.9</ele><time>2015-11-26T07:39:33Z</time></trkpt><trkpt lat="30.0991392788" lon="35.3703495394"><ele>1111.0</ele><time>2015-11-26T07:39:56Z</time></trkpt><trkpt lat="30.0977167860" lon="35.3688335884"><ele>1109.4</ele><time>2015-11-26T07:40:35Z</time></trkpt><trkpt lat="30.0973365828" lon="35.3678756207"><ele>1113.6</ele><time>2015-11-26T07:41:03Z</time></trkpt><trkpt lat="30.0972128659" lon="35.3668838739"><ele>1104.6</ele><time>2015-11-26T07:41:14Z</time></trkpt><trkpt lat="30.0972394366" lon="35.3661759384"><ele>1101.1</ele><time>2015-11-26T07:41:19Z</time></trkpt><trkpt lat="30.0976499822" lon="35.3649853729"><ele>1108.1</ele><time>2015-11-26T07:41:32Z</time></trkpt><trkpt lat="30.0978763774" lon="35.3647324909"><ele>1112.4</ele><time>2015-11-26T07:41:39Z</time></trkpt><trkpt lat="30.0986120570" lon="35.3645835444"><ele>1111.7</ele><time>2015-11-26T07:41:59Z</time></trkpt><trkpt lat="30.0979938917" lon="35.3646454029"><ele>1112.1</ele><time>2015-11-26T07:42:31Z</time></trkpt><trkpt lat="30.0976296142" lon="35.3649014700"><ele>1108.0</ele><time>2015-11-26T07:42:44Z</time></trkpt><trkpt lat="30.0973447971" lon="35.3655512352"><ele>1100.7</ele><time>2015-11-26T07:42:59Z</time></trkpt><trkpt lat="30.0972108543" lon="35.3654286917"><ele>1099.7</ele><time>2015-11-26T07:43:09Z</time></trkpt><trkpt lat="30.0971241854" lon="35.3655272629"><ele>1097.5</ele><time>2015-11-26T07:43:15Z</time></trkpt><trkpt lat="30.0969278812" lon="35.3663189337"><ele>1099.5</ele><time>2015-11-26T07:43:30Z</time></trkpt><trkpt lat="30.0960322749" lon="35.3657596931"><ele>1105.5</ele><time>2015-11-26T07:44:16Z</time></trkpt><trkpt lat="30.0957389921" lon="35.3652488161"><ele>1105.1</ele><time>2015-11-26T07:44:44Z</time></trkpt><trkpt lat="30.0941197760" lon="35.3642524593"><ele>1103.4</ele><time>2015-11-26T07:45:34Z</time></trkpt><trkpt lat="30.0923251268" lon="35.3640521318"><ele>1101.0</ele><time>2015-11-26T07:46:26Z</time></trkpt><trkpt lat="30.0902000628" lon="35.3644678742"><ele>1111.7</ele><time>2015-11-26T07:48:07Z</time></trkpt><trkpt lat="30.0889422745" lon="35.3640459292"><ele>1114.0</ele><time>2015-11-26T07:49:12Z</time></trkpt><trkpt lat="30.0886564516" lon="35.3642705642"><ele>1112.7</ele><time>2015-11-26T07:49:26Z</time></trkpt><trkpt lat="30.0884441379" lon="35.3648804314"><ele>1114.5</ele><time>2015-11-26T07:49:49Z</time></trkpt><trkpt lat="30.0873610284" lon="35.3662887588"><ele>1119.6</ele><time>2015-11-26T07:51:19Z</time></trkpt><trkpt lat="30.0864235125" lon="35.3680708352"><ele>1125.7</ele><time>2015-11-26T07:52:55Z</time></trkpt><trkpt lat="30.0853006728" lon="35.3688159864"><ele>1132.3</ele><time>2015-11-26T07:54:07Z</time></trkpt><trkpt lat="30.0847747922" lon="35.3696067352"><ele>1133.5</ele><time>2015-11-26T07:55:02Z</time></trkpt><trkpt lat="30.0831023511" lon="35.3695087507"><ele>1138.9</ele><time>2015-11-26T07:56:21Z</time></trkpt><trkpt lat="30.0825783145" lon="35.3699341323"><ele>1140.3</ele><time>2015-11-26T07:56:57Z</time></trkpt><trkpt lat="30.0814783573" lon="35.3696125187"><ele>1142.9</ele><time>2015-11-26T07:57:59Z</time></trkpt><trkpt lat="30.0807130057" lon="35.3690279648"><ele>1145.5</ele><time>2015-11-26T07:58:47Z</time></trkpt><trkpt lat="30.0792198535" lon="35.3683305066"><ele>1157.4</ele><time>2015-11-26T08:00:18Z</time></trkpt><trkpt lat="30.0780421123" lon="35.3673163801"><ele>1168.3</ele><time>2015-11-26T08:01:41Z</time></trkpt><trkpt lat="30.0761054736" lon="35.3649660107"><ele>1182.4</ele><time>2015-11-26T08:03:53Z</time></trkpt><trkpt lat="30.0752603263" lon="35.3644377831"><ele>1183.8</ele><time>2015-11-26T08:04:39Z</time></trkpt><trkpt lat="30.0740082376" lon="35.3642627690"><ele>1191.0</ele><time>2015-11-26T08:05:46Z</time></trkpt><trkpt lat="30.0731630065" lon="35.3639436699"><ele>1200.5</ele><time>2015-11-26T08:06:35Z</time></trkpt><trkpt lat="30.0706885010" lon="35.3624024894"><ele>1214.7</ele><time>2015-11-26T08:09:56Z</time></trkpt><trkpt lat="30.0677854288" lon="35.3624406271"><ele>1240.8</ele><time>2015-11-26T08:13:21Z</time></trkpt><trkpt lat="30.0673515815" lon="35.3627187386"><ele>1246.8</ele><time>2015-11-26T08:28:08Z</time></trkpt><trkpt lat="30.0660792086" lon="35.3627803456"><ele>1230.5</ele><time>2015-11-26T08:46:37Z</time></trkpt><trkpt lat="30.0646951888" lon="35.3634496406"><ele>1222.7</ele><time>2015-11-26T08:47:19Z</time></trkpt><trkpt lat="30.0622098707" lon="35.3652895521"><ele>1205.7</ele><time>2015-11-26T08:48:06Z</time></trkpt><trkpt lat="30.0615837425" lon="35.3659917880"><ele>1208.1</ele><time>2015-11-26T08:48:36Z</time></trkpt><trkpt lat="30.0604006369" lon="35.3660174366"><ele>1204.7</ele><time>2015-11-26T08:49:11Z</time></trkpt><trkpt lat="30.0597287435" lon="35.3658583481"><ele>1195.0</ele><time>2015-11-26T08:49:22Z</time></trkpt><trkpt lat="30.0577895064" lon="35.3660277463"><ele>1190.3</ele><time>2015-11-26T08:50:06Z</time></trkpt><trkpt lat="30.0566055626" lon="35.3665108792"><ele>1191.0</ele><time>2015-11-26T08:50:34Z</time></trkpt><trkpt lat="30.0557167456" lon="35.3666743264"><ele>1196.5</ele><time>2015-11-26T08:51:14Z</time></trkpt><trkpt lat="30.0554176793" lon="35.3665076941"><ele>1203.0</ele><time>2015-11-26T08:51:23Z</time></trkpt><trkpt lat="30.0553953834" lon="35.3661880922"><ele>1196.3</ele><time>2015-11-26T08:51:35Z</time></trkpt><trkpt lat="30.0552470237" lon="35.3661425784"><ele>1195.8</ele><time>2015-11-26T08:51:46Z</time></trkpt><trkpt lat="30.0532546453" lon="35.3669982031"><ele>1172.9</ele><time>2015-11-26T08:53:14Z</time></trkpt><trkpt lat="30.0529402401" lon="35.3673775680"><ele>1178.1</ele><time>2015-11-26T08:53:28Z</time></trkpt><trkpt lat="30.0514622591" lon="35.3668524418"><ele>1152.8</ele><time>2015-11-26T08:54:08Z</time></trkpt><trkpt lat="30.0503221527" lon="35.3671737202"><ele>1147.3</ele><time>2015-11-26T08:54:51Z</time></trkpt><trkpt lat="30.0496743992" lon="35.3667142242"><ele>1142.4</ele><time>2015-11-26T08:55:04Z</time></trkpt><trkpt lat="30.0491017476" lon="35.3667359333"><ele>1139.1</ele><time>2015-11-26T08:55:12Z</time></trkpt><trkpt lat="30.0478276145" lon="35.3664211929"><ele>1141.2</ele><time>2015-11-26T08:55:26Z</time></trkpt><trkpt lat="30.0459587853" lon="35.3667203430"><ele>1124.7</ele><time>2015-11-26T08:55:47Z</time></trkpt><trkpt lat="30.0443690736" lon="35.3667535353"><ele>1126.6</ele><time>2015-11-26T08:56:33Z</time></trkpt><trkpt lat="30.0429463293" lon="35.3661211208"><ele>1124.8</ele><time>2015-11-26T08:57:04Z</time></trkpt><trkpt lat="30.0416639820" lon="35.3657725174"><ele>1116.3</ele><time>2015-11-26T08:57:25Z</time></trkpt><trkpt lat="30.0369567890" lon="35.3686028346"><ele>1106.6</ele><time>2015-11-26T08:59:01Z</time></trkpt><trkpt lat="30.0341625139" lon="35.3694341518"><ele>1095.5</ele><time>2015-11-26T08:59:40Z</time></trkpt><trkpt lat="30.0307881273" lon="35.3694892209"><ele>1080.9</ele><time>2015-11-26T09:00:39Z</time></trkpt><trkpt lat="30.0291489623" lon="35.3693594690"><ele>1073.3</ele><time>2015-11-26T09:01:02Z</time></trkpt><trkpt lat="30.0267758779" lon="35.3686703090"><ele>1041.8</ele><time>2015-11-26T09:01:50Z</time></trkpt><trkpt lat="30.0249193702" lon="35.3689109534"><ele>1053.9</ele><time>2015-11-26T09:03:26Z</time></trkpt><trkpt lat="30.0245160330" lon="35.3694639076"><ele>1050.3</ele><time>2015-11-26T09:07:45Z</time></trkpt><trkpt lat="30.0239178166" lon="35.3698326275"><ele>1056.3</ele><time>2015-11-26T09:08:04Z</time></trkpt><trkpt lat="30.0212333445" lon="35.3703511320"><ele>1055.3</ele><time>2015-11-26T09:09:27Z</time></trkpt><trkpt lat="30.0197018031" lon="35.3703362122"><ele>1051.8</ele><time>2015-11-26T09:10:07Z</time></trkpt><trkpt lat="30.0193349272" lon="35.3706695605"><ele>1050.1</ele><time>2015-11-26T09:11:13Z</time></trkpt><trkpt lat="30.0186116528" lon="35.3708376177"><ele>1042.8</ele><time>2015-11-26T09:11:38Z</time></trkpt><trkpt lat="30.0180023722" lon="35.3704926185"><ele>1035.2</ele><time>2015-11-26T09:11:54Z</time></trkpt><trkpt lat="30.0176921580" lon="35.3706795350"><ele>1029.9</ele><time>2015-11-26T09:12:08Z</time></trkpt><trkpt lat="30.0175421219" lon="35.3710958641"><ele>1032.0</ele><time>2015-11-26T09:12:21Z</time></trkpt><trkpt lat="30.0175982807" lon="35.3721759561"><ele>1044.4</ele><time>2015-11-26T09:14:38Z</time></trkpt><trkpt lat="30.0169752538" lon="35.3729584068"><ele>1050.6</ele><time>2015-11-26T09:15:44Z</time></trkpt><trkpt lat="30.0163837429" lon="35.3742623795"><ele>1058.5</ele><time>2015-11-26T09:16:39Z</time></trkpt><trkpt lat="30.0146550592" lon="35.3747924510"><ele>1069.8</ele><time>2015-11-26T09:18:11Z</time></trkpt><trkpt lat="30.0140275899" lon="35.3753174935"><ele>1071.8</ele><time>2015-11-26T09:18:59Z</time></trkpt><trkpt lat="30.0137521606" lon="35.3766209632"><ele>1071.3</ele><time>2015-11-26T09:20:33Z</time></trkpt><trkpt lat="30.0142189488" lon="35.3787054587"><ele>1073.8</ele><time>2015-11-26T09:21:30Z</time></trkpt><trkpt lat="30.0138080679" lon="35.3803472221"><ele>1073.3</ele><time>2015-11-26T09:22:08Z</time></trkpt><trkpt lat="30.0139369816" lon="35.3833709937"><ele>1080.7</ele><time>2015-11-26T09:23:42Z</time></trkpt><trkpt lat="30.0133397710" lon="35.3836197685"><ele>1078.4</ele><time>2015-11-26T09:23:57Z</time></trkpt><trkpt lat="30.0118482951" lon="35.3831997514"><ele>1072.9</ele><time>2015-11-26T09:24:30Z</time></trkpt><trkpt lat="30.0097138435" lon="35.3830466140"><ele>1065.2</ele><time>2015-11-26T09:25:12Z</time></trkpt><trkpt lat="30.0086283870" lon="35.3820865508"><ele>1062.2</ele><time>2015-11-26T09:25:31Z</time></trkpt><trkpt lat="30.0070808362" lon="35.3811449278"><ele>1056.3</ele><time>2015-11-26T09:26:10Z</time></trkpt><trkpt lat="30.0080498680" lon="35.3818257898"><ele>1059.3</ele><time>2015-11-26T09:27:26Z</time></trkpt><trkpt lat="30.0072800741" lon="35.3823774029"><ele>1053.0</ele><time>2015-11-26T09:27:55Z</time></trkpt><trkpt lat="30.0054297689" lon="35.3823232558"><ele>1048.2</ele><time>2015-11-26T09:28:59Z</time></trkpt><trkpt lat="30.0044250302" lon="35.3828393295"><ele>1047.8</ele><time>2015-11-26T09:29:24Z</time></trkpt><trkpt lat="30.0040697213" lon="35.3844080865"><ele>1051.6</ele><time>2015-11-26T09:30:47Z</time></trkpt><trkpt lat="30.0042070169" lon="35.3844790813"><ele>1052.0</ele><time>2015-11-26T09:58:07Z</time></trkpt><trkpt lat="30.0039809570" lon="35.3850037884"><ele>1048.5</ele><time>2015-11-26T09:58:29Z</time></trkpt><trkpt lat="30.0041191746" lon="35.3870862722"><ele>1043.2</ele><time>2015-11-26T09:59:40Z</time></trkpt><trkpt lat="30.0040131435" lon="35.3874579258"><ele>1046.1</ele><time>2015-11-26T09:59:53Z</time></trkpt><trkpt lat="30.0032063853" lon="35.3887274489"><ele>1057.4</ele><time>2015-11-26T10:01:21Z</time></trkpt><trkpt lat="30.0018703099" lon="35.3899616841"><ele>1068.1</ele><time>2015-11-26T10:02:54Z</time></trkpt><trkpt lat="30.0016305037" lon="35.3906857129"><ele>1070.2</ele><time>2015-11-26T10:03:27Z</time></trkpt><trkpt lat="30.0009950716" lon="35.3916865122"><ele>1073.2</ele><time>2015-11-26T10:04:13Z</time></trkpt><trkpt lat="30.0008295290" lon="35.3922922723"><ele>1073.8</ele><time>2015-11-26T10:04:34Z</time></trkpt><trkpt lat="30.0003374275" lon="35.3923048452"><ele>1071.3</ele><time>2015-11-26T10:04:49Z</time></trkpt><trkpt lat="29.9995567370" lon="35.3928233497"><ele>1073.1</ele><time>2015-11-26T10:05:11Z</time></trkpt><trkpt lat="29.9984050635" lon="35.3927298915"><ele>1076.8</ele><time>2015-11-26T10:05:52Z</time></trkpt><trkpt lat="29.9967814051" lon="35.3936238214"><ele>1075.3</ele><time>2015-11-26T10:06:49Z</time></trkpt><trkpt lat="29.9949091394" lon="35.3930145409"><ele>1070.9</ele><time>2015-11-26T10:07:33Z</time></trkpt><trkpt lat="29.9946236517" lon="35.3923850600"><ele>1072.4</ele><time>2015-11-26T10:07:52Z</time></trkpt><trkpt lat="29.9945709296" lon="35.3904785961"><ele>1063.6</ele><time>2015-11-26T10:08:30Z</time></trkpt><trkpt lat="29.9940348230" lon="35.3879382927"><ele>1056.2</ele><time>2015-11-26T10:09:05Z</time></trkpt><trkpt lat="29.9927359633" lon="35.3840540349"><ele>1043.0</ele><time>2015-11-26T10:10:03Z</time></trkpt><trkpt lat="29.9911527894" lon="35.3811984882"><ele>1031.6</ele><time>2015-11-26T10:10:43Z</time></trkpt><trkpt lat="29.9904068839" lon="35.3806355596"><ele>1029.9</ele><time>2015-11-26T10:10:59Z</time></trkpt><trkpt lat="29.9890851416" lon="35.3788207099"><ele>1022.4</ele><time>2015-11-26T10:11:36Z</time></trkpt><trkpt lat="29.9873420410" lon="35.3758397698"><ele>1015.5</ele><time>2015-11-26T10:12:33Z</time></trkpt><trkpt lat="29.9866341054" lon="35.3752442356"><ele>1015.7</ele><time>2015-11-26T10:12:55Z</time></trkpt><trkpt lat="29.9842771143" lon="35.3740224056"><ele>1012.9</ele><time>2015-11-26T10:15:41Z</time></trkpt><trkpt lat="29.9846337643" lon="35.3735428769"><ele>1013.2</ele><time>2015-11-26T10:45:15Z</time></trkpt><trkpt lat="29.9841264915" lon="35.3738523368"><ele>1012.6</ele><time>2015-11-26T10:46:03Z</time></trkpt><trkpt lat="29.9806035776" lon="35.3714798391"><ele>1004.8</ele><time>2015-11-26T10:47:42Z</time></trkpt><trkpt lat="29.9795463681" lon="35.3708800301"><ele>1003.1</ele><time>2015-11-26T10:48:08Z</time></trkpt><trkpt lat="29.9789276998" lon="35.3707840573"><ele>1002.2</ele><time>2015-11-26T10:48:23Z</time></trkpt><trkpt lat="29.9771521613" lon="35.3696269356"><ele>999.3</ele><time>2015-11-26T10:49:10Z</time></trkpt><trkpt lat="29.9763719738" lon="35.3687147330"><ele>997.3</ele><time>2015-11-26T10:49:33Z</time></trkpt><trkpt lat="29.9757032655" lon="35.3674406838"><ele>997.3</ele><time>2015-11-26T10:50:03Z</time></trkpt><trkpt lat="29.9742342532" lon="35.3660103958"><ele>995.1</ele><time>2015-11-26T10:53:19Z</time></trkpt><trkpt lat="29.9736203626" lon="35.3651976027"><ele>993.8</ele><time>2015-11-26T10:53:41Z</time></trkpt><trkpt lat="29.9724311382" lon="35.3642493580"><ele>991.5</ele><time>2015-11-26T10:54:13Z</time></trkpt><trkpt lat="29.9717980530" lon="35.3629309684"><ele>989.1</ele><time>2015-11-26T10:54:40Z</time></trkpt><trkpt lat="29.9702105206" lon="35.3617210407"><ele>984.5</ele><time>2015-11-26T10:55:18Z</time></trkpt><trkpt lat="29.9695892539" lon="35.3614487126"><ele>983.6</ele><time>2015-11-26T10:55:32Z</time></trkpt><trkpt lat="29.9688518979" lon="35.3608255181"><ele>982.2</ele><time>2015-11-26T10:55:52Z</time></trkpt><trkpt lat="29.9677645974" lon="35.3605285473"><ele>985.4</ele><time>2015-11-26T10:56:25Z</time></trkpt><trkpt lat="29.9668561667" lon="35.3600307461"><ele>983.0</ele><time>2015-11-26T10:57:10Z</time></trkpt><trkpt lat="29.9660655018" lon="35.3593964875"><ele>981.5</ele><time>2015-11-26T10:57:31Z</time></trkpt><trkpt lat="29.9657272082" lon="35.3594100662"><ele>979.5</ele><time>2015-11-26T10:57:43Z</time></trkpt><trkpt lat="29.9644208886" lon="35.3588954173"><ele>977.7</ele><time>2015-11-26T10:58:19Z</time></trkpt><trkpt lat="29.9609701429" lon="35.3542380128"><ele>969.1</ele><time>2015-11-26T11:00:26Z</time></trkpt><trkpt lat="29.9575120211" lon="35.3509140853"><ele>966.9</ele><time>2015-11-26T11:02:07Z</time></trkpt><trkpt lat="29.9543547258" lon="35.3474219330"><ele>959.6</ele><time>2015-11-26T11:03:49Z</time></trkpt><trkpt lat="29.9524566438" lon="35.3464558348"><ele>955.1</ele><time>2015-11-26T11:04:31Z</time></trkpt><trkpt lat="29.9511034694" lon="35.3455183189"><ele>952.7</ele><time>2015-11-26T11:05:10Z</time></trkpt><trkpt lat="29.9505930953" lon="35.3454299737"><ele>952.2</ele><time>2015-11-26T11:05:28Z</time></trkpt><trkpt lat="29.9498597626" lon="35.3440168686"><ele>949.8</ele><time>2015-11-26T11:07:05Z</time></trkpt><trkpt lat="29.9499218725" lon="35.3436100110"><ele>948.6</ele><time>2015-11-26T11:07:17Z</time></trkpt><trkpt lat="29.9492429383" lon="35.3428432345"><ele>948.2</ele><time>2015-11-26T11:07:50Z</time></trkpt><trkpt lat="29.9494129233" lon="35.3414861206"><ele>949.9</ele><time>2015-11-26T11:08:29Z</time></trkpt><trkpt lat="29.9491918087" lon="35.3412070870"><ele>949.5</ele><time>2015-11-26T11:08:39Z</time></trkpt><trkpt lat="29.9483817816" lon="35.3410654329"><ele>947.5</ele><time>2015-11-26T11:08:58Z</time></trkpt><trkpt lat="29.9473671522" lon="35.3403161746"><ele>949.1</ele><time>2015-11-26T11:09:26Z</time></trkpt><trkpt lat="29.9465386849" lon="35.3400192037"><ele>952.5</ele><time>2015-11-26T11:10:12Z</time></trkpt><trkpt lat="29.9451474566" lon="35.3403351177"><ele>945.1</ele><time>2015-11-26T11:10:45Z</time></trkpt><trkpt lat="29.9441661872" lon="35.3404097166"><ele>946.3</ele><time>2015-11-26T11:12:44Z</time></trkpt><trkpt lat="29.9434474390" lon="35.3402145021"><ele>945.5</ele><time>2015-11-26T11:13:09Z</time></trkpt><trkpt lat="29.9413987342" lon="35.3404548950"><ele>942.2</ele><time>2015-11-26T11:14:23Z</time></trkpt><trkpt lat="29.9410539027" lon="35.3406285681"><ele>941.2</ele><time>2015-11-26T11:14:33Z</time></trkpt><trkpt lat="29.9391725007" lon="35.3406998143"><ele>937.5</ele><time>2015-11-26T11:15:17Z</time></trkpt><trkpt lat="29.9367770366" lon="35.3412233479"><ele>934.6</ele><time>2015-11-26T11:16:15Z</time></trkpt><trkpt lat="29.9363032915" lon="35.3411074262"><ele>934.1</ele><time>2015-11-26T11:17:04Z</time></trkpt><trkpt lat="29.9353148136" lon="35.3404273186"><ele>932.8</ele><time>2015-11-26T11:17:35Z</time></trkpt><trkpt lat="29.9342849292" lon="35.3394181374"><ele>932.4</ele><time>2015-11-26T11:18:18Z</time></trkpt><trkpt lat="29.9334920011" lon="35.3372899722"><ele>934.0</ele><time>2015-11-26T11:19:17Z</time></trkpt><trkpt lat="29.9334806018" lon="35.3364884108"><ele>933.0</ele><time>2015-11-26T11:19:33Z</time></trkpt><trkpt lat="29.9328814633" lon="35.3355208039"><ele>930.6</ele><time>2015-11-26T11:20:04Z</time></trkpt><trkpt lat="29.9308031704" lon="35.3340740874"><ele>929.1</ele><time>2015-11-26T11:22:18Z</time></trkpt><trkpt lat="29.9299690034" lon="35.3342216928"><ele>929.5</ele><time>2015-11-26T11:22:40Z</time></trkpt><trkpt lat="29.9294251855" lon="35.3341133147"><ele>930.6</ele><time>2015-11-26T11:22:55Z</time></trkpt><trkpt lat="29.9284985662" lon="35.3346197493"><ele>928.5</ele><time>2015-11-26T11:23:26Z</time></trkpt><trkpt lat="29.9277731963" lon="35.3347752336"><ele>928.8</ele><time>2015-11-26T11:23:43Z</time></trkpt><trkpt lat="29.9269510992" lon="35.3354810737"><ele>927.5</ele><time>2015-11-26T11:24:04Z</time></trkpt><trkpt lat="29.9247242790" lon="35.3362551425"><ele>925.3</ele><time>2015-11-26T11:24:46Z</time></trkpt><trkpt lat="29.9218892679" lon="35.3357021045"><ele>920.8</ele><time>2015-11-26T11:25:35Z</time></trkpt><trkpt lat="29.9210264347" lon="35.3354241606"><ele>919.2</ele><time>2015-11-26T11:25:53Z</time></trkpt><trkpt lat="29.9199911859" lon="35.3347699530"><ele>920.7</ele><time>2015-11-26T11:26:21Z</time></trkpt><trkpt lat="29.9181216024" lon="35.3341912664"><ele>915.5</ele><time>2015-11-26T11:27:02Z</time></trkpt><trkpt lat="29.9163526855" lon="35.3332395852"><ele>912.4</ele><time>2015-11-26T11:28:12Z</time></trkpt><trkpt lat="29.9149108306" lon="35.3321995586"><ele>909.7</ele><time>2015-11-26T11:28:50Z</time></trkpt><trkpt lat="29.9137496855" lon="35.3316616919"><ele>907.2</ele><time>2015-11-26T11:29:13Z</time></trkpt><trkpt lat="29.9134421535" lon="35.3302123770"><ele>904.8</ele><time>2015-11-26T11:29:42Z</time></trkpt><trkpt lat="29.9131907802" lon="35.3297242150"><ele>903.9</ele><time>2015-11-26T11:30:34Z</time></trkpt><trkpt lat="29.9131212942" lon="35.3301051725"><ele>904.6</ele><time>2015-11-26T11:31:51Z</time></trkpt><trkpt lat="29.9098563753" lon="35.3299385402"><ele>899.8</ele><time>2015-11-26T11:32:54Z</time></trkpt><trkpt lat="29.9089206196" lon="35.3294030204"><ele>898.5</ele><time>2015-11-26T11:34:16Z</time></trkpt><trkpt lat="29.9082506541" lon="35.3286390100"><ele>898.9</ele><time>2015-11-26T11:36:18Z</time></trkpt><trkpt lat="29.9068226293" lon="35.3282381035"><ele>901.8</ele><time>2015-11-26T11:37:16Z</time></trkpt><trkpt lat="29.9060566071" lon="35.3277419787"><ele>903.4</ele><time>2015-11-26T11:37:46Z</time></trkpt><trkpt lat="29.9065183662" lon="35.3259832039"><ele>907.3</ele><time>2015-11-26T11:38:43Z</time></trkpt><trkpt lat="29.9040432740" lon="35.3243466374"><ele>906.7</ele><time>2015-11-26T11:41:45Z</time></trkpt><trkpt lat="29.9019033741" lon="35.3224861901"><ele>906.4</ele><time>2015-11-26T11:43:23Z</time></trkpt><trkpt lat="29.9015973508" lon="35.3219172265"><ele>907.5</ele><time>2015-11-26T11:43:40Z</time></trkpt><trkpt lat="29.9006548058" lon="35.3209740948"><ele>908.3</ele><time>2015-11-26T11:44:16Z</time></trkpt><trkpt lat="29.8999234848" lon="35.3204935603"><ele>907.6</ele><time>2015-11-26T11:44:37Z</time></trkpt><trkpt lat="29.8996488098" lon="35.3200644907"><ele>905.5</ele><time>2015-11-26T11:44:46Z</time></trkpt><trkpt lat="29.8991431296" lon="35.3197125345"><ele>906.9</ele><time>2015-11-26T11:45:02Z</time></trkpt><trkpt lat="29.8981671408" lon="35.3193578124"><ele>904.7</ele><time>2015-11-26T11:45:30Z</time></trkpt><trkpt lat="29.8972359113" lon="35.3194784280"><ele>903.2</ele><time>2015-11-26T11:45:49Z</time></trkpt><trkpt lat="29.8965848051" lon="35.3193563875"><ele>901.5</ele><time>2015-11-26T11:46:01Z</time></trkpt><trkpt lat="29.8962826375" lon="35.3191347700"><ele>900.8</ele><time>2015-11-26T11:46:08Z</time></trkpt><trkpt lat="29.8959673941" lon="35.3180259280"><ele>903.0</ele><time>2015-11-26T11:46:36Z</time></trkpt><trkpt lat="29.8957459442" lon="35.3176976088"><ele>903.5</ele><time>2015-11-26T11:46:45Z</time></trkpt><trkpt lat="29.8950091749" lon="35.3171904199"><ele>903.7</ele><time>2015-11-26T11:47:07Z</time></trkpt><trkpt lat="29.8936502170" lon="35.3168864921"><ele>904.8</ele><time>2015-11-26T11:47:47Z</time></trkpt><trkpt lat="29.8915048689" lon="35.3144352045"><ele>905.3</ele><time>2015-11-26T11:49:05Z</time></trkpt><trkpt lat="29.8905269522" lon="35.3135566134"><ele>906.7</ele><time>2015-11-26T11:49:36Z</time></trkpt><trkpt lat="29.8890364822" lon="35.3128894977"><ele>907.8</ele><time>2015-11-26T11:50:17Z</time></trkpt><trkpt lat="29.8882406205" lon="35.3119507246"><ele>909.7</ele><time>2015-11-26T11:50:57Z</time></trkpt><trkpt lat="29.8874740116" lon="35.3115463816"><ele>911.1</ele><time>2015-11-26T11:51:45Z</time></trkpt><trkpt lat="29.8866170458" lon="35.3118759580"><ele>912.0</ele><time>2015-11-26T11:52:18Z</time></trkpt><trkpt lat="29.8824198917" lon="35.3127366956"><ele>911.9</ele><time>2015-11-26T11:54:02Z</time></trkpt><trkpt lat="29.8817639239" lon="35.3132510930"><ele>911.1</ele><time>2015-11-26T11:54:22Z</time></trkpt><trkpt lat="29.8810302559" lon="35.3134813439"><ele>909.6</ele><time>2015-11-26T11:54:47Z</time></trkpt><trkpt lat="29.8813762609" lon="35.3129500151"><ele>911.7</ele><time>2015-11-26T12:05:09Z</time></trkpt><trkpt lat="29.8808403220" lon="35.3135388438"><ele>909.5</ele><time>2015-11-26T12:32:38Z</time></trkpt><trkpt lat="29.8804528266" lon="35.3136181366"><ele>910.0</ele><time>2015-11-26T12:32:50Z</time></trkpt><trkpt lat="29.8795489222" lon="35.3143062908"><ele>908.6</ele><time>2015-11-26T12:33:40Z</time></trkpt><trkpt lat="29.8767677229" lon="35.3145714942"><ele>909.4</ele><time>2015-11-26T12:35:14Z</time></trkpt><trkpt lat="29.8752910830" lon="35.3143824823"><ele>910.6</ele><time>2015-11-26T12:35:50Z</time></trkpt><trkpt lat="29.8740936443" lon="35.3149943613"><ele>907.9</ele><time>2015-11-26T12:36:30Z</time></trkpt><trkpt lat="29.8731794301" lon="35.3157069907"><ele>904.9</ele><time>2015-11-26T12:36:58Z</time></trkpt><trkpt lat="29.8725041840" lon="35.3157370817"><ele>905.4</ele><time>2015-11-26T12:37:17Z</time></trkpt><trkpt lat="29.8703450058" lon="35.3168708179"><ele>899.4</ele><time>2015-11-26T12:38:06Z</time></trkpt><trkpt lat="29.8699013516" lon="35.3172974568"><ele>897.6</ele><time>2015-11-26T12:38:17Z</time></trkpt><trkpt lat="29.8651587870" lon="35.3201307077"><ele>884.0</ele><time>2015-11-26T12:40:10Z</time></trkpt><trkpt lat="29.8623432219" lon="35.3223763872"><ele>875.2</ele><time>2015-11-26T12:41:22Z</time></trkpt><trkpt lat="29.8616198637" lon="35.3227015212"><ele>873.0</ele><time>2015-11-26T12:41:39Z</time></trkpt><trkpt lat="29.8600723129" lon="35.3240818530"><ele>868.2</ele><time>2015-11-26T12:42:28Z</time></trkpt><trkpt lat="29.8581372667" lon="35.3249829076"><ele>864.2</ele><time>2015-11-26T12:43:13Z</time></trkpt><trkpt lat="29.8576209415" lon="35.3255950380"><ele>862.7</ele><time>2015-11-26T12:43:30Z</time></trkpt><trkpt lat="29.8551150877" lon="35.3274745122"><ele>857.1</ele><time>2015-11-26T12:44:37Z</time></trkpt><trkpt lat="29.8498557787" lon="35.3295516316"><ele>847.9</ele><time>2015-11-26T12:46:45Z</time></trkpt><trkpt lat="29.8474760726" lon="35.3313249070"><ele>843.4</ele><time>2015-11-26T12:47:53Z</time></trkpt><trkpt lat="29.8428669479" lon="35.3320593294"><ele>838.5</ele><time>2015-11-26T12:49:41Z</time></trkpt><trkpt lat="29.8375901207" lon="35.3307191469"><ele>834.6</ele><time>2015-11-26T12:51:43Z</time></trkpt><trkpt lat="29.8343219329" lon="35.3249060456"><ele>839.9</ele><time>2015-11-26T12:54:32Z</time></trkpt><trkpt lat="29.8336725868" lon="35.3241994511"><ele>841.9</ele><time>2015-11-26T12:54:58Z</time></trkpt><trkpt lat="29.8177330568" lon="35.3175170626"><ele>826.9</ele><time>2015-11-26T13:00:34Z</time></trkpt><trkpt lat="29.8145413119" lon="35.3134818468"><ele>833.8</ele><time>2015-11-26T13:02:46Z</time></trkpt><trkpt lat="29.8119783774" lon="35.3112456389"><ele>833.6</ele><time>2015-11-26T13:03:40Z</time></trkpt><trkpt lat="29.8091573641" lon="35.3095684201"><ele>837.9</ele><time>2015-11-26T13:04:39Z</time></trkpt><trkpt lat="29.8044609837" lon="35.3078330308"><ele>831.8</ele><time>2015-11-26T13:06:17Z</time></trkpt><trkpt lat="29.8040761705" lon="35.3081661277"><ele>830.3</ele><time>2015-11-26T13:07:17Z</time></trkpt><trkpt lat="29.8030556738" lon="35.3112394363"><ele>817.5</ele><time>2015-11-26T13:08:23Z</time></trkpt><trkpt lat="29.8018893320" lon="35.3108243644"><ele>816.8</ele><time>2015-11-26T13:22:15Z</time></trkpt><trkpt lat="29.8028237466" lon="35.3114195634"><ele>816.8</ele><time>2015-11-26T13:23:09Z</time></trkpt><trkpt lat="29.7998539545" lon="35.3157186415"><ele>803.1</ele><time>2015-11-26T13:24:38Z</time></trkpt><trkpt lat="29.7994522937" lon="35.3155580442"><ele>801.9</ele><time>2015-11-26T13:24:52Z</time></trkpt><trkpt lat="29.7992450092" lon="35.3156776540"><ele>803.5</ele><time>2015-11-26T13:25:02Z</time></trkpt><trkpt lat="29.7980327345" lon="35.3155090101"><ele>802.4</ele><time>2015-11-26T13:25:43Z</time></trkpt><trkpt lat="29.7970107291" lon="35.3159253392"><ele>801.5</ele><time>2015-11-26T13:26:10Z</time></trkpt><trkpt lat="29.7965690028" lon="35.3164606914"><ele>802.2</ele><time>2015-11-26T13:26:24Z</time></trkpt><trkpt lat="29.7959018871" lon="35.3178035561"><ele>808.5</ele><time>2015-11-26T13:26:55Z</time></trkpt><trkpt lat="29.7934796847" lon="35.3206984978"><ele>798.9</ele><time>2015-11-26T13:28:02Z</time></trkpt><trkpt lat="29.7913184948" lon="35.3252843209"><ele>800.1</ele><time>2015-11-26T13:29:39Z</time></trkpt><trkpt lat="29.7894691955" lon="35.3245941550"><ele>798.9</ele><time>2015-11-26T13:30:21Z</time></trkpt><trkpt lat="29.7892368492" lon="35.3246626351"><ele>798.8</ele><time>2015-11-26T13:30:27Z</time></trkpt><trkpt lat="29.7878756281" lon="35.3288518265"><ele>799.6</ele><time>2015-11-26T13:31:42Z</time></trkpt><trkpt lat="29.7867648583" lon="35.3329324722"><ele>798.6</ele><time>2015-11-26T13:32:54Z</time></trkpt><trkpt lat="29.7866098769" lon="35.3330631461"><ele>798.2</ele><time>2015-11-26T13:33:00Z</time></trkpt><trkpt lat="29.7853996977" lon="35.3323064279"><ele>797.1</ele><time>2015-11-26T13:33:29Z</time></trkpt><trkpt lat="29.7850598954" lon="35.3323205933"><ele>796.9</ele><time>2015-11-26T13:33:37Z</time></trkpt><trkpt lat="29.7848756611" lon="35.3351928201"><ele>797.2</ele><time>2015-11-26T13:34:28Z</time></trkpt><trkpt lat="29.7756160051" lon="35.3277851455"><ele>789.5</ele><time>2015-11-26T13:37:53Z</time></trkpt><trkpt lat="29.7738193441" lon="35.3296465147"><ele>789.1</ele><time>2015-11-26T13:38:44Z</time></trkpt><trkpt lat="29.7746035550" lon="35.3304070886"><ele>789.3</ele><time>2015-11-26T13:39:05Z</time></trkpt><trkpt lat="29.7757460084" lon="35.3340539709"><ele>790.9</ele><time>2015-11-26T13:40:10Z</time></trkpt><trkpt lat="29.7764020599" lon="35.3341781069"><ele>791.2</ele><time>2015-11-26T13:40:23Z</time></trkpt><trkpt lat="29.7765312251" lon="35.3343659453"><ele>791.6</ele><time>2015-11-26T13:40:27Z</time></trkpt><trkpt lat="29.7763968632" lon="35.3430282231"><ele>793.4</ele><time>2015-11-26T13:42:39Z</time></trkpt><trkpt lat="29.7762654349" lon="35.3438993543"><ele>794.6</ele><time>2015-11-26T13:42:54Z</time></trkpt><trkpt lat="29.7718459088" lon="35.3440339677"><ele>790.3</ele><time>2015-11-26T13:44:01Z</time></trkpt><trkpt lat="29.7614626586" lon="35.3399125021"><ele>783.6</ele><time>2015-11-26T13:47:19Z</time></trkpt><trkpt lat="29.7488854453" lon="35.3396443650"><ele>775.2</ele><time>2015-11-26T14:05:42Z</time></trkpt><trkpt lat="29.7485505044" lon="35.3399065509"><ele>774.2</ele><time>2015-11-26T14:05:52Z</time></trkpt><trkpt lat="29.7479800321" lon="35.3414820135"><ele>773.3</ele><time>2015-11-26T14:06:56Z</time></trkpt><trkpt lat="29.7440702934" lon="35.3495942708"><ele>774.5</ele><time>2015-11-26T14:10:29Z</time></trkpt><trkpt lat="29.7432553209" lon="35.3479181416"><ele>772.8</ele><time>2015-11-26T14:11:18Z</time></trkpt><trkpt lat="29.7424250934" lon="35.3469072003"><ele>772.6</ele><time>2015-11-26T14:12:08Z</time></trkpt><trkpt lat="29.7383944876" lon="35.3497730568"><ele>772.9</ele><time>2015-11-26T14:17:41Z</time></trkpt><trkpt lat="29.7369021736" lon="35.3502739593"><ele>772.4</ele><time>2015-11-26T14:18:35Z</time></trkpt><trkpt lat="29.7363623790" lon="35.3506370634"><ele>772.6</ele><time>2015-11-26T14:19:23Z</time></trkpt><trkpt lat="29.7355711274" lon="35.3504580259"><ele>771.7</ele><time>2015-11-26T14:20:36Z</time></trkpt><trkpt lat="29.7353974544" lon="35.3498475719"><ele>771.6</ele><time>2015-11-26T14:21:01Z</time></trkpt><trkpt lat="29.7350538801" lon="35.3501513321"><ele>771.8</ele><time>2015-11-26T14:21:28Z</time></trkpt><trkpt lat="29.7335670143" lon="35.3500224184"><ele>769.4</ele><time>2015-11-26T14:22:09Z</time></trkpt><trkpt lat="29.7332612425" lon="35.3502106760"><ele>769.4</ele><time>2015-11-26T14:22:19Z</time></trkpt><trkpt lat="29.7327565681" lon="35.3514620941"><ele>769.5</ele><time>2015-11-26T14:23:23Z</time></trkpt><trkpt lat="29.7325341962" lon="35.3516704682"><ele>769.4</ele><time>2015-11-26T14:23:46Z</time></trkpt><trkpt lat="29.7300246544" lon="35.3535538819"><ele>769.8</ele><time>2015-11-26T14:25:28Z</time></trkpt><trkpt lat="29.7288269643" lon="35.3537660278"><ele>768.4</ele><time>2015-11-26T14:27:17Z</time></trkpt><trkpt lat="29.7288029082" lon="35.3548106644"><ele>768.8</ele><time>2015-11-26T14:27:49Z</time></trkpt><trkpt lat="29.7286698874" lon="35.3548789769"><ele>768.8</ele><time>2015-11-26T14:27:55Z</time></trkpt><trkpt lat="29.7280052025" lon="35.3546250053"><ele>767.9</ele><time>2015-11-26T14:28:30Z</time></trkpt><trkpt lat="29.7275409289" lon="35.3532389738"><ele>767.8</ele><time>2015-11-26T14:29:49Z</time></trkpt><trkpt lat="29.7272601351" lon="35.3532925341"><ele>767.6</ele><time>2015-11-26T14:31:09Z</time></trkpt><trkpt lat="29.7258394025" lon="35.3519088496"><ele>765.0</ele><time>2015-11-26T14:34:30Z</time></trkpt><trkpt lat="29.7253767215" lon="35.3499531839"><ele>764.6</ele><time>2015-11-26T14:35:17Z</time></trkpt><trkpt lat="29.7247176524" lon="35.3492491040"><ele>763.9</ele><time>2015-11-26T14:35:39Z</time></trkpt><trkpt lat="29.7237854172" lon="35.3503688425"><ele>764.4</ele><time>2015-11-26T14:36:19Z</time></trkpt><trkpt lat="29.7226267029" lon="35.3562722169"><ele>766.3</ele><time>2015-11-26T14:38:34Z</time></trkpt><trkpt lat="29.7222231142" lon="35.3570327070"><ele>769.9</ele><time>2015-11-26T14:38:55Z</time></trkpt><trkpt lat="29.7208081651" lon="35.3569583595"><ele>768.4</ele><time>2015-11-26T14:39:44Z</time></trkpt><trkpt lat="29.7203475796" lon="35.3564963490"><ele>766.0</ele><time>2015-11-26T14:40:05Z</time></trkpt><trkpt lat="29.7194945533" lon="35.3562147170"><ele>765.8</ele><time>2015-11-26T14:40:34Z</time></trkpt><trkpt lat="29.7187326383" lon="35.3564704489"><ele>766.4</ele><time>2015-11-26T14:41:18Z</time></trkpt><trkpt lat="29.7158275545" lon="35.3564225882"><ele>765.9</ele><time>2015-11-26T14:42:45Z</time></trkpt><trkpt lat="29.7157427296" lon="35.3586720396"><ele>766.7</ele><time>2015-11-26T14:43:44Z</time></trkpt><trkpt lat="29.7162489127" lon="35.3607976902"><ele>771.1</ele><time>2015-11-26T14:44:44Z</time></trkpt><trkpt lat="29.7168126795" lon="35.3612902109"><ele>774.1</ele><time>2015-11-26T14:45:06Z</time></trkpt><trkpt lat="29.7176460084" lon="35.3640444204"><ele>770.2</ele><time>2015-11-26T14:46:08Z</time></trkpt><trkpt lat="29.7181136347" lon="35.3665787727"><ele>774.7</ele><time>2015-11-26T14:46:52Z</time></trkpt><trkpt lat="29.7177499440" lon="35.3701676521"><ele>769.6</ele><time>2015-11-26T14:48:37Z</time></trkpt><trkpt lat="29.7173996642" lon="35.3707007412"><ele>769.4</ele><time>2015-11-26T14:49:07Z</time></trkpt><trkpt lat="29.7157066874" lon="35.3723066300"><ele>769.9</ele><time>2015-11-26T14:51:16Z</time></trkpt><trkpt lat="29.7151673958" lon="35.3730646055"><ele>769.3</ele><time>2015-11-26T14:56:52Z</time></trkpt><trkpt lat="29.7140205838" lon="35.3754458204"><ele>769.4</ele><time>2015-11-26T14:57:52Z</time></trkpt><trkpt lat="29.7123050597" lon="35.3782074898"><ele>771.4</ele><time>2015-11-26T14:58:58Z</time></trkpt><trkpt lat="29.7117205895" lon="35.3801848646"><ele>770.0</ele><time>2015-11-26T14:59:37Z</time></trkpt><trkpt lat="29.7108597681" lon="35.3843091801"><ele>770.1</ele><time>2015-11-26T15:00:49Z</time></trkpt><trkpt lat="29.7098433785" lon="35.3868898004"><ele>770.2</ele><time>2015-11-26T15:01:48Z</time></trkpt><trkpt lat="29.7089831438" lon="35.3882269654"><ele>770.4</ele><time>2015-11-26T15:02:26Z</time></trkpt><trkpt lat="29.7082576063" lon="35.3903323319"><ele>770.2</ele><time>2015-11-26T15:03:25Z</time></trkpt><trkpt lat="29.7066356242" lon="35.3933947440"><ele>770.8</ele><time>2015-11-26T15:04:44Z</time></trkpt><trkpt lat="29.7031675279" lon="35.3987449128"><ele>770.9</ele><time>2015-11-26T15:08:13Z</time></trkpt><trkpt lat="29.7024421580" lon="35.4001852591"><ele>770.7</ele><time>2015-11-26T15:08:54Z</time></trkpt><trkpt lat="29.7014396824" lon="35.4027942941"><ele>770.7</ele><time>2015-11-26T15:10:28Z</time></trkpt><trkpt lat="29.7008454055" lon="35.4027631972"><ele>770.8</ele><time>2015-11-26T15:11:08Z</time></trkpt><trkpt lat="29.6973766387" lon="35.4018353205"><ele>773.2</ele><time>2015-11-26T15:15:10Z</time></trkpt><trkpt lat="29.6968132909" lon="35.4018479772"><ele>775.2</ele><time>2015-11-26T15:19:18Z</time></trkpt><trkpt lat="29.6962848958" lon="35.4037329834"><ele>778.3</ele><time>2015-11-26T15:26:36Z</time></trkpt><trkpt lat="29.6876674611" lon="35.4206556268"><ele>790.9</ele><time>2015-11-26T15:32:15Z</time></trkpt><trkpt lat="29.6792553831" lon="35.4290322494"><ele>801.3</ele><time>2015-11-26T15:37:12Z</time></trkpt></trkseg></trk></gpx>